SBSV/SSA METAR and TAF weather

Enter ICAO airport designator
Station Type Date Time Source
SBSV METAR 2020/04/05 07:00 UTC NOAA

SBSV 050700Z 36004KT 9999 FEW015 27/26 Q1011


Station Type Date Time Source
SBSV Decoded METAR 2020/04/05 07:00 UTC NOAA

Salvador Aeroporto , Brazil (SBSV) 12-54S 038-20W 13M
Apr 05, 2020 - 03:00 AM EDT / 2020.04.05 0700 UTC
Wind: from the N (360 degrees) at 5 MPH (4 KT):0
Visibility: greater than 7 mile(s):0
Sky conditions: mostly clear
Temperature: 80 F (27 C)
Dew Point: 78 F (26 C)
Relative Humidity: 94%
Pressure (altimeter): 29.85 in. Hg (1011 hPa)
ob: SBSV 050700Z 36004KT 9999 FEW015 27/26 Q1011
cycle: 7

Station Type Date Time Source
SBSV TAF 2020/04/05 06:06 UTC NOAA

TAF SBSV 050300Z 0506/0606 05005KT 9999 FEW020 TN25/0509Z TX32/0517Z
BECMG 0512/0514 09008KT SCT020
BECMG 0515/0517 SCT020 FEW025TCU
BECMG 0521/0523 16005KT FEW020
RMK PDL

Example: see airport list